Xiao'Ergou, China
Current Conditions -  °F | °C
As of 8:30 PM on Thursday 30 Oct 2014 (Local Time) from UHBB Reporting Station
Clear Clear  
Wind Chill: 18°   Ceiling: Unl
Heat Index: 18°   Visibility: 6mi
Dew Point: 10°   Wind: 2mph
Humidity: 73%   Direction: 240°WSW
Pressure: 30.36"   Gusts: NA
Location:  49.2°N, 123.72°E
Report Text: UHBB 301230Z 24001MPS CAVOK M08/M12 Q1028 NOSIG RMK QFE754/100536090060
Loading
Personal Weather Stations






























Interactive Weather Map
Tropical Storm Tracking
New forecast layout! Learn more

10-Day Weather Forecast

Advertisements
Track Severe Weather on mobile